sensor_id;sensor_type;location;lat;lon;timestamp;P1;durP1;ratioP1;P2;durP2;ratioP2
9860;SDS011;4969;52.304;4.968;2024-02-14T00:00:33;3.00;;;2.90;;
9860;SDS011;4969;52.304;4.968;2024-02-14T00:02:59;3.08;;;2.88;;
9860;SDS011;4969;52.304;4.968;2024-02-14T00:05:26;3.20;;;3.00;;
9860;SDS011;4969;52.304;4.968;2024-02-14T00:07:53;3.55;;;3.35;;
9860;SDS011;4969;52.304;4.968;2024-02-14T00:10:20;3.28;;;3.10;;
9860;SDS011;4969;52.304;4.968;2024-02-14T00:12:47;3.60;;;3.40;;
9860;SDS011;4969;52.304;4.968;2024-02-14T00:15:14;3.13;;;2.92;;
9860;SDS011;4969;52.304;4.968;2024-02-14T00:17:42;3.00;;;2.80;;
9860;SDS011;4969;52.304;4.968;2024-02-14T00:20:09;2.72;;;2.60;;
9860;SDS011;4969;52.304;4.968;2024-02-14T00:22:37;3.28;;;3.08;;
9860;SDS011;4969;52.304;4.968;2024-02-14T00:25:04;2.67;;;2.58;;
9860;SDS011;4969;52.304;4.968;2024-02-14T00:27:31;2.88;;;2.67;;
9860;SDS011;4969;52.304;4.968;2024-02-14T00:29:58;2.75;;;2.65;;
9860;SDS011;4969;52.304;4.968;2024-02-14T00:32:24;3.67;;;3.38;;
9860;SDS011;4969;52.304;4.968;2024-02-14T00:34:52;4.30;;;2.95;;
9860;SDS011;4969;52.304;4.968;2024-02-14T00:37:19;3.33;;;3.13;;
9860;SDS011;4969;52.304;4.968;2024-02-14T00:39:46;3.20;;;3.00;;
9860;SDS011;4969;52.304;4.968;2024-02-14T00:42:13;3.05;;;2.85;;
9860;SDS011;4969;52.304;4.968;2024-02-14T00:44:40;3.70;;;3.40;;
9860;SDS011;4969;52.304;4.968;2024-02-14T00:47:07;3.65;;;3.45;;
9860;SDS011;4969;52.304;4.968;2024-02-14T00:49:34;3.15;;;2.88;;
9860;SDS011;4969;52.304;4.968;2024-02-14T00:52:02;3.67;;;3.47;;
9860;SDS011;4969;52.304;4.968;2024-02-14T00:54:29;3.25;;;3.05;;
9860;SDS011;4969;52.304;4.968;2024-02-14T00:56:56;3.75;;;3.50;;
9860;SDS011;4969;52.304;4.968;2024-02-14T00:59:22;4.25;;;3.58;;
9860;SDS011;4969;52.304;4.968;2024-02-14T01:01:49;3.13;;;2.10;;
9860;SDS011;4969;52.304;4.968;2024-02-14T01:04:16;3.33;;;3.13;;
9860;SDS011;4969;52.304;4.968;2024-02-14T01:06:43;3.95;;;3.65;;
9860;SDS011;4969;52.304;4.968;2024-02-14T01:09:11;2.85;;;2.75;;
9860;SDS011;4969;52.304;4.968;2024-02-14T01:11:38;3.55;;;3.25;;
9860;SDS011;4969;52.304;4.968;2024-02-14T01:14:04;3.97;;;3.78;;
9860;SDS011;4969;52.304;4.968;2024-02-14T01:16:31;3.03;;;2.83;;
9860;SDS011;4969;52.304;4.968;2024-02-14T01:18:58;3.58;;;3.38;;
9860;SDS011;4969;52.304;4.968;2024-02-14T01:21:24;3.35;;;3.15;;
9860;SDS011;4969;52.304;4.968;2024-02-14T01:23:51;5.63;;;3.50;;
9860;SDS011;4969;52.304;4.968;2024-02-14T01:26:19;3.67;;;3.35;;
9860;SDS011;4969;52.304;4.968;2024-02-14T01:28:46;4.18;;;3.90;;
9860;SDS011;4969;52.304;4.968;2024-02-14T01:31:13;3.65;;;3.45;;
9860;SDS011;4969;52.304;4.968;2024-02-14T01:33:39;4.00;;;3.78;;
9860;SDS011;4969;52.304;4.968;2024-02-14T01:36:06;5.50;;;5.10;;
9860;SDS011;4969;52.304;4.968;2024-02-14T01:38:33;3.58;;;3.38;;
9860;SDS011;4969;52.304;4.968;2024-02-14T01:41:00;4.80;;;4.40;;
9860;SDS011;4969;52.304;4.968;2024-02-14T01:43:29;3.60;;;3.40;;
9860;SDS011;4969;52.304;4.968;2024-02-14T01:45:56;4.75;;;4.35;;
9860;SDS011;4969;52.304;4.968;2024-02-14T01:48:30;5.15;;;4.85;;
9860;SDS011;4969;52.304;4.968;2024-02-14T01:50:57;5.22;;;4.93;;
9860;SDS011;4969;52.304;4.968;2024-02-14T01:53:23;6.10;;;5.63;;
9860;SDS011;4969;52.304;4.968;2024-02-14T01:55:50;6.53;;;6.03;;
9860;SDS011;4969;52.304;4.968;2024-02-14T01:58:17;6.65;;;6.15;;
9860;SDS011;4969;52.304;4.968;2024-02-14T02:00:46;6.43;;;5.93;;
9860;SDS011;4969;52.304;4.968;2024-02-14T02:03:13;6.35;;;5.75;;
9860;SDS011;4969;52.304;4.968;2024-02-14T02:05:40;5.70;;;5.30;;
9860;SDS011;4969;52.304;4.968;2024-02-14T02:08:07;6.40;;;5.90;;
9860;SDS011;4969;52.304;4.968;2024-02-14T02:10:34;6.10;;;5.70;;
9860;SDS011;4969;52.304;4.968;2024-02-14T02:13:00;5.20;;;4.80;;
9860;SDS011;4969;52.304;4.968;2024-02-14T02:15:27;6.57;;;6.07;;
9860;SDS011;4969;52.304;4.968;2024-02-14T02:17:56;6.20;;;5.72;;
9860;SDS011;4969;52.304;4.968;2024-02-14T02:20:24;6.28;;;5.75;;
9860;SDS011;4969;52.304;4.968;2024-02-14T02:22:54;5.90;;;5.50;;
9860;SDS011;4969;52.304;4.968;2024-02-14T02:25:20;6.20;;;5.80;;
9860;SDS011;4969;52.304;4.968;2024-02-14T02:27:50;5.30;;;4.80;;
9860;SDS011;4969;52.304;4.968;2024-02-14T02:30:17;7.63;;;7.07;;
9860;SDS011;4969;52.304;4.968;2024-02-14T02:32:43;5.47;;;5.07;;
9860;SDS011;4969;52.304;4.968;2024-02-14T02:35:10;7.38;;;6.78;;
9860;SDS011;4969;52.304;4.968;2024-02-14T02:37:36;4.10;;;3.90;;
9860;SDS011;4969;52.304;4.968;2024-02-14T02:40:05;5.78;;;5.38;;
9860;SDS011;4969;52.304;4.968;2024-02-14T02:42:34;5.03;;;4.63;;
9860;SDS011;4969;52.304;4.968;2024-02-14T02:45:01;5.28;;;4.97;;
9860;SDS011;4969;52.304;4.968;2024-02-14T02:47:30;5.35;;;5.05;;
9860;SDS011;4969;52.304;4.968;2024-02-14T02:49:57;4.57;;;4.28;;
9860;SDS011;4969;52.304;4.968;2024-02-14T02:52:28;4.38;;;4.07;;
9860;SDS011;4969;52.304;4.968;2024-02-14T02:54:55;4.03;;;3.72;;
9860;SDS011;4969;52.304;4.968;2024-02-14T02:57:23;3.90;;;3.70;;
9860;SDS011;4969;52.304;4.968;2024-02-14T02:59:51;3.75;;;3.55;;
9860;SDS011;4969;52.304;4.968;2024-02-14T03:02:19;3.65;;;3.45;;
9860;SDS011;4969;52.304;4.968;2024-02-14T03:04:46;3.25;;;3.05;;
9860;SDS011;4969;52.304;4.968;2024-02-14T03:07:12;3.50;;;3.30;;
9860;SDS011;4969;52.304;4.968;2024-02-14T03:09:39;3.38;;;3.17;;
9860;SDS011;4969;52.304;4.968;2024-02-14T03:12:06;3.17;;;2.97;;
9860;SDS011;4969;52.304;4.968;2024-02-14T03:14:35;2.95;;;2.85;;
9860;SDS011;4969;52.304;4.968;2024-02-14T03:17:01;2.83;;;2.72;;
9860;SDS011;4969;52.304;4.968;2024-02-14T03:19:28;3.40;;;3.20;;
9860;SDS011;4969;52.304;4.968;2024-02-14T03:21:55;3.00;;;2.83;;
9860;SDS011;4969;52.304;4.968;2024-02-14T03:24:22;3.10;;;2.90;;
9860;SDS011;4969;52.304;4.968;2024-02-14T03:26:50;3.50;;;3.30;;
9860;SDS011;4969;52.304;4.968;2024-02-14T03:29:18;3.45;;;3.15;;
9860;SDS011;4969;52.304;4.968;2024-02-14T03:31:46;4.20;;;3.60;;
9860;SDS011;4969;52.304;4.968;2024-02-14T03:34:13;4.55;;;3.65;;
9860;SDS011;4969;52.304;4.968;2024-02-14T03:36:40;6.20;;;3.97;;
9860;SDS011;4969;52.304;4.968;2024-02-14T03:39:08;6.43;;;4.00;;
9860;SDS011;4969;52.304;4.968;2024-02-14T03:41:34;5.87;;;3.30;;
9860;SDS011;4969;52.304;4.968;2024-02-14T03:44:02;7.50;;;3.57;;
9860;SDS011;4969;52.304;4.968;2024-02-14T03:46:29;6.18;;;3.63;;
9860;SDS011;4969;52.304;4.968;2024-02-14T03:48:57;7.53;;;3.85;;
9860;SDS011;4969;52.304;4.968;2024-02-14T03:51:23;8.40;;;3.83;;
9860;SDS011;4969;52.304;4.968;2024-02-14T03:53:50;9.30;;;3.90;;
9860;SDS011;4969;52.304;4.968;2024-02-14T03:56:17;8.15;;;3.63;;
9860;SDS011;4969;52.304;4.968;2024-02-14T03:58:44;10.23;;;4.50;;
9860;SDS011;4969;52.304;4.968;2024-02-14T04:01:12;12.27;;;4.70;;
9860;SDS011;4969;52.304;4.968;2024-02-14T04:03:38;11.70;;;4.33;;
9860;SDS011;4969;52.304;4.968;2024-02-14T04:06:06;12.37;;;3.93;;
9860;SDS011;4969;52.304;4.968;2024-02-14T04:08:33;12.60;;;4.13;;
9860;SDS011;4969;52.304;4.968;2024-02-14T04:11:00;13.20;;;4.32;;
9860;SDS011;4969;52.304;4.968;2024-02-14T04:13:26;12.03;;;3.63;;
9860;SDS011;4969;52.304;4.968;2024-02-14T04:15:53;14.55;;;3.83;;
9860;SDS011;4969;52.304;4.968;2024-02-14T04:18:20;11.70;;;3.60;;
9860;SDS011;4969;52.304;4.968;2024-02-14T04:20:46;12.47;;;3.40;;
9860;SDS011;4969;52.304;4.968;2024-02-14T04:23:18;12.40;;;3.63;;
9860;SDS011;4969;52.304;4.968;2024-02-14T04:25:44;12.40;;;4.17;;
9860;SDS011;4969;52.304;4.968;2024-02-14T04:28:11;12.20;;;3.50;;
9860;SDS011;4969;52.304;4.968;2024-02-14T04:30:38;17.07;;;4.17;;
9860;SDS011;4969;52.304;4.968;2024-02-14T04:33:04;14.00;;;3.90;;
9860;SDS011;4969;52.304;4.968;2024-02-14T04:35:31;14.13;;;4.00;;
9860;SDS011;4969;52.304;4.968;2024-02-14T04:37:59;11.45;;;3.25;;
9860;SDS011;4969;52.304;4.968;2024-02-14T04:40:27;14.75;;;4.05;;
9860;SDS011;4969;52.304;4.968;2024-02-14T04:42:54;12.50;;;4.30;;
9860;SDS011;4969;52.304;4.968;2024-02-14T04:45:20;12.60;;;4.17;;
9860;SDS011;4969;52.304;4.968;2024-02-14T04:47:47;14.40;;;3.83;;
9860;SDS011;4969;52.304;4.968;2024-02-14T04:50:13;14.00;;;4.10;;
9860;SDS011;4969;52.304;4.968;2024-02-14T04:52:40;14.77;;;4.00;;
9860;SDS011;4969;52.304;4.968;2024-02-14T04:55:07;15.47;;;4.37;;
9860;SDS011;4969;52.304;4.968;2024-02-14T04:57:36;17.20;;;4.65;;
9860;SDS011;4969;52.304;4.968;2024-02-14T05:00:03;14.20;;;4.18;;
9860;SDS011;4969;52.304;4.968;2024-02-14T05:02:31;11.65;;;4.28;;
9860;SDS011;4969;52.304;4.968;2024-02-14T05:04:57;14.73;;;4.73;;
9860;SDS011;4969;52.304;4.968;2024-02-14T05:07:24;11.70;;;4.03;;
9860;SDS011;4969;52.304;4.968;2024-02-14T05:09:50;14.47;;;4.80;;
9860;SDS011;4969;52.304;4.968;2024-02-14T05:12:17;14.37;;;4.77;;
9860;SDS011;4969;52.304;4.968;2024-02-14T05:14:46;12.57;;;4.97;;
9860;SDS011;4969;52.304;4.968;2024-02-14T05:17:12;14.73;;;4.73;;
9860;SDS011;4969;52.304;4.968;2024-02-14T05:19:41;10.87;;;4.37;;
9860;SDS011;4969;52.304;4.968;2024-02-14T05:22:08;12.47;;;4.50;;
9860;SDS011;4969;52.304;4.968;2024-02-14T05:24:34;16.57;;;5.83;;
9860;SDS011;4969;52.304;4.968;2024-02-14T05:27:02;13.30;;;4.43;;
9860;SDS011;4969;52.304;4.968;2024-02-14T05:29:30;13.17;;;4.47;;
9860;SDS011;4969;52.304;4.968;2024-02-14T05:31:58;10.63;;;5.07;;
9860;SDS011;4969;52.304;4.968;2024-02-14T05:34:24;13.07;;;5.37;;
9860;SDS011;4969;52.304;4.968;2024-02-14T05:36:51;13.77;;;4.97;;
9860;SDS011;4969;52.304;4.968;2024-02-14T05:39:17;13.87;;;5.40;;
9860;SDS011;4969;52.304;4.968;2024-02-14T05:41:44;14.30;;;5.17;;
9860;SDS011;4969;52.304;4.968;2024-02-14T05:44:10;12.23;;;5.00;;
9860;SDS011;4969;52.304;4.968;2024-02-14T05:46:37;14.83;;;5.50;;
9860;SDS011;4969;52.304;4.968;2024-02-14T05:49:05;11.07;;;5.00;;
9860;SDS011;4969;52.304;4.968;2024-02-14T05:51:31;13.97;;;5.53;;
9860;SDS011;4969;52.304;4.968;2024-02-14T05:53:58;12.37;;;4.53;;
9860;SDS011;4969;52.304;4.968;2024-02-14T05:56:25;10.20;;;4.43;;
9860;SDS011;4969;52.304;4.968;2024-02-14T05:58:51;14.27;;;5.47;;
9860;SDS011;4969;52.304;4.968;2024-02-14T06:01:18;12.23;;;4.70;;
9860;SDS011;4969;52.304;4.968;2024-02-14T06:03:44;12.93;;;4.50;;
9860;SDS011;4969;52.304;4.968;2024-02-14T06:06:12;8.33;;;4.50;;
9860;SDS011;4969;52.304;4.968;2024-02-14T06:08:39;9.83;;;4.13;;
9860;SDS011;4969;52.304;4.968;2024-02-14T06:11:05;9.63;;;4.07;;
9860;SDS011;4969;52.304;4.968;2024-02-14T06:13:32;11.67;;;4.23;;
9860;SDS011;4969;52.304;4.968;2024-02-14T06:16:00;10.73;;;3.83;;
9860;SDS011;4969;52.304;4.968;2024-02-14T06:18:27;11.30;;;4.07;;
9860;SDS011;4969;52.304;4.968;2024-02-14T06:20:54;10.40;;;4.67;;
9860;SDS011;4969;52.304;4.968;2024-02-14T06:23:21;10.10;;;4.70;;
9860;SDS011;4969;52.304;4.968;2024-02-14T06:25:48;10.00;;;3.47;;
9860;SDS011;4969;52.304;4.968;2024-02-14T06:28:15;10.07;;;4.47;;
9860;SDS011;4969;52.304;4.968;2024-02-14T06:30:41;10.43;;;4.50;;
9860;SDS011;4969;52.304;4.968;2024-02-14T06:33:08;9.63;;;4.47;;
9860;SDS011;4969;52.304;4.968;2024-02-14T06:35:34;16.47;;;5.17;;
9860;SDS011;4969;52.304;4.968;2024-02-14T06:38:01;10.70;;;4.23;;
9860;SDS011;4969;52.304;4.968;2024-02-14T06:40:29;10.90;;;4.73;;
9860;SDS011;4969;52.304;4.968;2024-02-14T06:42:55;11.93;;;5.13;;
9860;SDS011;4969;52.304;4.968;2024-02-14T06:45:23;9.80;;;4.90;;
9860;SDS011;4969;52.304;4.968;2024-02-14T06:47:49;11.87;;;5.30;;
9860;SDS011;4969;52.304;4.968;2024-02-14T06:50:16;12.57;;;5.87;;
9860;SDS011;4969;52.304;4.968;2024-02-14T06:52:42;11.83;;;5.23;;
9860;SDS011;4969;52.304;4.968;2024-02-14T06:55:09;16.23;;;6.53;;
9860;SDS011;4969;52.304;4.968;2024-02-14T06:57:37;10.23;;;4.73;;
9860;SDS011;4969;52.304;4.968;2024-02-14T07:00:05;10.17;;;4.17;;
9860;SDS011;4969;52.304;4.968;2024-02-14T07:02:33;13.00;;;5.60;;
9860;SDS011;4969;52.304;4.968;2024-02-14T07:05:00;17.03;;;6.00;;
9860;SDS011;4969;52.304;4.968;2024-02-14T07:07:27;16.60;;;5.63;;
9860;SDS011;4969;52.304;4.968;2024-02-14T07:09:53;13.67;;;5.00;;
9860;SDS011;4969;52.304;4.968;2024-02-14T07:12:20;9.40;;;4.90;;
9860;SDS011;4969;52.304;4.968;2024-02-14T07:14:48;11.97;;;5.37;;
9860;SDS011;4969;52.304;4.968;2024-02-14T07:17:14;12.90;;;5.23;;
9860;SDS011;4969;52.304;4.968;2024-02-14T07:19:41;9.23;;;5.90;;
9860;SDS011;4969;52.304;4.968;2024-02-14T07:22:12;12.67;;;5.70;;
9860;SDS011;4969;52.304;4.968;2024-02-14T07:24:40;11.97;;;6.87;;
9860;SDS011;4969;52.304;4.968;2024-02-14T07:27:07;11.83;;;5.87;;
9860;SDS011;4969;52.304;4.968;2024-02-14T07:29:34;11.63;;;6.57;;
9860;SDS011;4969;52.304;4.968;2024-02-14T07:32:02;12.53;;;6.10;;
9860;SDS011;4969;52.304;4.968;2024-02-14T07:34:29;12.13;;;5.60;;
9860;SDS011;4969;52.304;4.968;2024-02-14T07:36:56;11.90;;;6.73;;
9860;SDS011;4969;52.304;4.968;2024-02-14T07:39:22;14.02;;;7.45;;
9860;SDS011;4969;52.304;4.968;2024-02-14T07:41:49;12.85;;;8.20;;
9860;SDS011;4969;52.304;4.968;2024-02-14T07:44:15;13.97;;;8.87;;
9860;SDS011;4969;52.304;4.968;2024-02-14T07:46:42;11.53;;;8.13;;
9860;SDS011;4969;52.304;4.968;2024-02-14T07:49:10;16.43;;;8.63;;
9860;SDS011;4969;52.304;4.968;2024-02-14T07:51:36;11.63;;;7.13;;
9860;SDS011;4969;52.304;4.968;2024-02-14T07:54:04;15.60;;;9.33;;
9860;SDS011;4969;52.304;4.968;2024-02-14T07:56:31;16.17;;;10.00;;
9860;SDS011;4969;52.304;4.968;2024-02-14T07:58:57;12.80;;;9.50;;
9860;SDS011;4969;52.304;4.968;2024-02-14T08:01:25;12.63;;;9.00;;
9860;SDS011;4969;52.304;4.968;2024-02-14T08:03:51;9.53;;;6.47;;
9860;SDS011;4969;52.304;4.968;2024-02-14T08:06:19;9.13;;;6.13;;
9860;SDS011;4969;52.304;4.968;2024-02-14T08:08:46;12.73;;;8.30;;
9860;SDS011;4969;52.304;4.968;2024-02-14T08:11:14;11.27;;;8.17;;
9860;SDS011;4969;52.304;4.968;2024-02-14T08:13:40;12.07;;;8.80;;
9860;SDS011;4969;52.304;4.968;2024-02-14T08:16:07;12.37;;;8.17;;
9860;SDS011;4969;52.304;4.968;2024-02-14T08:18:34;12.83;;;8.57;;
9860;SDS011;4969;52.304;4.968;2024-02-14T08:21:01;10.73;;;8.03;;
9860;SDS011;4969;52.304;4.968;2024-02-14T08:23:30;9.43;;;8.23;;
9860;SDS011;4969;52.304;4.968;2024-02-14T08:25:57;10.37;;;7.77;;
9860;SDS011;4969;52.304;4.968;2024-02-14T08:28:24;10.60;;;7.10;;
9860;SDS011;4969;52.304;4.968;2024-02-14T08:30:51;7.78;;;5.82;;
9860;SDS011;4969;52.304;4.968;2024-02-14T08:33:17;8.52;;;7.18;;
9860;SDS011;4969;52.304;4.968;2024-02-14T08:35:44;10.68;;;7.97;;
9860;SDS011;4969;52.304;4.968;2024-02-14T08:38:12;10.30;;;7.53;;
9860;SDS011;4969;52.304;4.968;2024-02-14T08:40:40;9.07;;;7.57;;
9860;SDS011;4969;52.304;4.968;2024-02-14T08:43:07;11.38;;;7.35;;
9860;SDS011;4969;52.304;4.968;2024-02-14T08:45:34;9.10;;;6.07;;
9860;SDS011;4969;52.304;4.968;2024-02-14T08:48:00;8.90;;;6.87;;
9860;SDS011;4969;52.304;4.968;2024-02-14T08:50:27;8.17;;;6.40;;
9860;SDS011;4969;52.304;4.968;2024-02-14T08:52:55;6.25;;;5.63;;
9860;SDS011;4969;52.304;4.968;2024-02-14T08:55:22;7.13;;;5.93;;
9860;SDS011;4969;52.304;4.968;2024-02-14T08:57:50;8.63;;;5.97;;
9860;SDS011;4969;52.304;4.968;2024-02-14T09:00:16;5.67;;;5.17;;
9860;SDS011;4969;52.304;4.968;2024-02-14T09:02:44;5.63;;;4.77;;
9860;SDS011;4969;52.304;4.968;2024-02-14T09:05:11;4.93;;;4.27;;
9860;SDS011;4969;52.304;4.968;2024-02-14T09:07:38;4.55;;;4.10;;
9860;SDS011;4969;52.304;4.968;2024-02-14T09:10:06;5.18;;;4.63;;
9860;SDS011;4969;52.304;4.968;2024-02-14T09:12:35;4.68;;;4.38;;
9860;SDS011;4969;52.304;4.968;2024-02-14T09:15:04;4.82;;;4.38;;
9860;SDS011;4969;52.304;4.968;2024-02-14T09:17:31;6.32;;;5.93;;
9860;SDS011;4969;52.304;4.968;2024-02-14T09:19:58;5.63;;;5.13;;
9860;SDS011;4969;52.304;4.968;2024-02-14T09:22:24;5.70;;;5.28;;
9860;SDS011;4969;52.304;4.968;2024-02-14T09:24:51;5.13;;;4.82;;
9860;SDS011;4969;52.304;4.968;2024-02-14T09:27:18;5.50;;;5.13;;
9860;SDS011;4969;52.304;4.968;2024-02-14T09:29:44;4.37;;;4.07;;
9860;SDS011;4969;52.304;4.968;2024-02-14T09:32:12;4.55;;;4.25;;
9860;SDS011;4969;52.304;4.968;2024-02-14T09:34:39;4.43;;;4.13;;
9860;SDS011;4969;52.304;4.968;2024-02-14T09:37:05;3.97;;;3.70;;
9860;SDS011;4969;52.304;4.968;2024-02-14T09:39:32;4.07;;;3.65;;
9860;SDS011;4969;52.304;4.968;2024-02-14T09:42:01;3.95;;;3.67;;
9860;SDS011;4969;52.304;4.968;2024-02-14T09:44:34;4.97;;;4.68;;
9860;SDS011;4969;52.304;4.968;2024-02-14T09:47:02;4.38;;;4.00;;
9860;SDS011;4969;52.304;4.968;2024-02-14T09:49:32;4.88;;;4.57;;
9860;SDS011;4969;52.304;4.968;2024-02-14T09:52:01;4.85;;;4.50;;
9860;SDS011;4969;52.304;4.968;2024-02-14T09:54:28;4.80;;;4.50;;
9860;SDS011;4969;52.304;4.968;2024-02-14T09:56:59;4.95;;;4.55;;
9860;SDS011;4969;52.304;4.968;2024-02-14T09:59:26;5.50;;;5.10;;
9860;SDS011;4969;52.304;4.968;2024-02-14T10:01:53;5.60;;;5.22;;
9860;SDS011;4969;52.304;4.968;2024-02-14T10:04:20;6.82;;;6.32;;
9860;SDS011;4969;52.304;4.968;2024-02-14T10:06:51;6.13;;;5.72;;
9860;SDS011;4969;52.304;4.968;2024-02-14T10:09:18;6.65;;;6.05;;
9860;SDS011;4969;52.304;4.968;2024-02-14T10:11:46;5.97;;;5.47;;
9860;SDS011;4969;52.304;4.968;2024-02-14T10:14:12;5.90;;;5.60;;
9860;SDS011;4969;52.304;4.968;2024-02-14T10:16:39;6.38;;;5.88;;
9860;SDS011;4969;52.304;4.968;2024-02-14T10:19:13;5.78;;;5.28;;
9860;SDS011;4969;52.304;4.968;2024-02-14T10:21:40;6.05;;;5.55;;
9860;SDS011;4969;52.304;4.968;2024-02-14T10:24:08;5.85;;;5.45;;
9860;SDS011;4969;52.304;4.968;2024-02-14T10:26:35;6.53;;;6.13;;
9860;SDS011;4969;52.304;4.968;2024-02-14T10:29:02;5.75;;;5.35;;
9860;SDS011;4969;52.304;4.968;2024-02-14T10:31:29;4.20;;;3.97;;
9860;SDS011;4969;52.304;4.968;2024-02-14T10:33:55;4.20;;;3.90;;
9860;SDS011;4969;52.304;4.968;2024-02-14T10:36:22;4.10;;;3.80;;
9860;SDS011;4969;52.304;4.968;2024-02-14T10:38:49;3.97;;;3.67;;
9860;SDS011;4969;52.304;4.968;2024-02-14T10:41:18;4.10;;;3.80;;
9860;SDS011;4969;52.304;4.968;2024-02-14T10:43:44;3.15;;;3.03;;
9860;SDS011;4969;52.304;4.968;2024-02-14T10:46:12;3.58;;;3.28;;
9860;SDS011;4969;52.304;4.968;2024-02-14T10:48:43;2.58;;;2.47;;
9860;SDS011;4969;52.304;4.968;2024-02-14T10:51:10;3.60;;;3.40;;
9860;SDS011;4969;52.304;4.968;2024-02-14T10:53:40;3.78;;;3.47;;
9860;SDS011;4969;52.304;4.968;2024-02-14T10:56:10;3.67;;;3.47;;
9860;SDS011;4969;52.304;4.968;2024-02-14T10:58:40;3.83;;;3.63;;
9860;SDS011;4969;52.304;4.968;2024-02-14T11:01:07;3.42;;;3.22;;
9860;SDS011;4969;52.304;4.968;2024-02-14T11:03:34;3.53;;;3.33;;
9860;SDS011;4969;52.304;4.968;2024-02-14T11:06:02;3.42;;;3.22;;
9860;SDS011;4969;52.304;4.968;2024-02-14T11:08:29;3.60;;;3.40;;
9860;SDS011;4969;52.304;4.968;2024-02-14T11:10:58;3.60;;;3.40;;
9860;SDS011;4969;52.304;4.968;2024-02-14T11:13:26;3.22;;;3.03;;
9860;SDS011;4969;52.304;4.968;2024-02-14T11:15:55;3.33;;;3.13;;
9860;SDS011;4969;52.304;4.968;2024-02-14T11:18:26;2.80;;;2.70;;
9860;SDS011;4969;52.304;4.968;2024-02-14T11:20:55;2.85;;;2.65;;
9860;SDS011;4969;52.304;4.968;2024-02-14T11:23:23;2.60;;;2.47;;
9860;SDS011;4969;52.304;4.968;2024-02-14T11:25:58;3.88;;;3.20;;
9860;SDS011;4969;52.304;4.968;2024-02-14T11:28:26;2.95;;;2.70;;
9860;SDS011;4969;52.304;4.968;2024-02-14T11:30:58;2.85;;;2.65;;
9860;SDS011;4969;52.304;4.968;2024-02-14T11:33:28;2.63;;;2.40;;
9860;SDS011;4969;52.304;4.968;2024-02-14T11:35:55;2.42;;;2.22;;
9860;SDS011;4969;52.304;4.968;2024-02-14T11:38:23;2.58;;;2.38;;
9860;SDS011;4969;52.304;4.968;2024-02-14T11:40:53;2.47;;;2.35;;
9860;SDS011;4969;52.304;4.968;2024-02-14T11:43:21;2.20;;;2.10;;
9860;SDS011;4969;52.304;4.968;2024-02-14T11:45:48;2.28;;;2.17;;
9860;SDS011;4969;52.304;4.968;2024-02-14T11:48:16;2.28;;;2.17;;
9860;SDS011;4969;52.304;4.968;2024-02-14T11:50:44;2.78;;;2.67;;
9860;SDS011;4969;52.304;4.968;2024-02-14T11:53:11;2.78;;;2.58;;
9860;SDS011;4969;52.304;4.968;2024-02-14T11:55:39;2.53;;;2.33;;
9860;SDS011;4969;52.304;4.968;2024-02-14T11:58:06;2.33;;;2.22;;
9860;SDS011;4969;52.304;4.968;2024-02-14T12:00:36;2.72;;;2.58;;
9860;SDS011;4969;52.304;4.968;2024-02-14T12:03:03;2.92;;;2.70;;
9860;SDS011;4969;52.304;4.968;2024-02-14T12:05:34;2.60;;;2.50;;
9860;SDS011;4969;52.304;4.968;2024-02-14T12:08:03;2.70;;;2.50;;
9860;SDS011;4969;52.304;4.968;2024-02-14T12:10:32;3.03;;;2.83;;
9860;SDS011;4969;52.304;4.968;2024-02-14T12:12:59;2.85;;;2.65;;
9860;SDS011;4969;52.304;4.968;2024-02-14T12:15:36;3.00;;;2.80;;
9860;SDS011;4969;52.304;4.968;2024-02-14T12:18:06;3.03;;;2.83;;
9860;SDS011;4969;52.304;4.968;2024-02-14T12:20:35;2.60;;;2.50;;
9860;SDS011;4969;52.304;4.968;2024-02-14T12:23:02;2.50;;;2.40;;
9860;SDS011;4969;52.304;4.968;2024-02-14T12:25:29;2.80;;;2.60;;
9860;SDS011;4969;52.304;4.968;2024-02-14T12:27:56;2.60;;;2.50;;
9860;SDS011;4969;52.304;4.968;2024-02-14T12:30:24;2.40;;;2.30;;
9860;SDS011;4969;52.304;4.968;2024-02-14T12:33:10;2.10;;;2.00;;
9860;SDS011;4969;52.304;4.968;2024-02-14T12:35:39;2.03;;;1.92;;
9860;SDS011;4969;52.304;4.968;2024-02-14T12:38:09;3.65;;;2.42;;
9860;SDS011;4969;52.304;4.968;2024-02-14T12:40:36;2.30;;;2.20;;
9860;SDS011;4969;52.304;4.968;2024-02-14T12:43:02;2.30;;;2.20;;
9860;SDS011;4969;52.304;4.968;2024-02-14T12:45:30;1.77;;;1.75;;
9860;SDS011;4969;52.304;4.968;2024-02-14T12:47:57;2.83;;;1.67;;
9860;SDS011;4969;52.304;4.968;2024-02-14T12:50:24;3.40;;;2.38;;
9860;SDS011;4969;52.304;4.968;2024-02-14T12:52:52;1.90;;;1.80;;
9860;SDS011;4969;52.304;4.968;2024-02-14T12:55:18;1.67;;;1.58;;
9860;SDS011;4969;52.304;4.968;2024-02-14T12:57:45;1.73;;;1.63;;
9860;SDS011;4969;52.304;4.968;2024-02-14T13:00:13;2.35;;;2.08;;
9860;SDS011;4969;52.304;4.968;2024-02-14T13:02:40;4.25;;;1.90;;
9860;SDS011;4969;52.304;4.968;2024-02-14T13:05:07;1.80;;;1.70;;
9860;SDS011;4969;52.304;4.968;2024-02-14T13:07:34;2.78;;;1.77;;
9860;SDS011;4969;52.304;4.968;2024-02-14T13:10:02;2.00;;;1.90;;
9860;SDS011;4969;52.304;4.968;2024-02-14T13:12:29;3.17;;;1.55;;
9860;SDS011;4969;52.304;4.968;2024-02-14T13:15:01;1.75;;;1.65;;
9860;SDS011;4969;52.304;4.968;2024-02-14T13:17:28;1.70;;;1.60;;
9860;SDS011;4969;52.304;4.968;2024-02-14T13:19:54;1.60;;;1.50;;
9860;SDS011;4969;52.304;4.968;2024-02-14T13:22:21;2.40;;;1.73;;
9860;SDS011;4969;52.304;4.968;2024-02-14T13:24:48;1.95;;;1.85;;
9860;SDS011;4969;52.304;4.968;2024-02-14T13:27:16;2.03;;;1.92;;
9860;SDS011;4969;52.304;4.968;2024-02-14T13:29:45;1.90;;;1.80;;
9860;SDS011;4969;52.304;4.968;2024-02-14T13:32:12;1.98;;;1.88;;
9860;SDS011;4969;52.304;4.968;2024-02-14T13:34:38;1.90;;;1.80;;
9860;SDS011;4969;52.304;4.968;2024-02-14T13:37:05;1.65;;;1.65;;
9860;SDS011;4969;52.304;4.968;2024-02-14T13:39:34;1.80;;;1.70;;
9860;SDS011;4969;52.304;4.968;2024-02-14T13:42:01;2.92;;;2.10;;
9860;SDS011;4969;52.304;4.968;2024-02-14T13:44:29;2.20;;;2.10;;
9860;SDS011;4969;52.304;4.968;2024-02-14T13:46:56;2.35;;;2.25;;
9860;SDS011;4969;52.304;4.968;2024-02-14T13:49:22;2.35;;;2.25;;
9860;SDS011;4969;52.304;4.968;2024-02-14T13:51:49;2.47;;;2.00;;
9860;SDS011;4969;52.304;4.968;2024-02-14T13:54:17;2.67;;;2.53;;
9860;SDS011;4969;52.304;4.968;2024-02-14T13:56:43;2.58;;;2.38;;
9860;SDS011;4969;52.304;4.968;2024-02-14T13:59:11;3.00;;;2.90;;
9860;SDS011;4969;52.304;4.968;2024-02-14T14:01:39;2.88;;;2.67;;
9860;SDS011;4969;52.304;4.968;2024-02-14T14:04:05;3.00;;;2.80;;
9860;SDS011;4969;52.304;4.968;2024-02-14T14:06:32;3.33;;;3.05;;
9860;SDS011;4969;52.304;4.968;2024-02-14T14:08:59;3.80;;;3.50;;
9860;SDS011;4969;52.304;4.968;2024-02-14T14:11:28;3.60;;;3.30;;
9860;SDS011;4969;52.304;4.968;2024-02-14T14:13:54;3.80;;;3.55;;
9860;SDS011;4969;52.304;4.968;2024-02-14T14:16:21;3.60;;;3.22;;
9860;SDS011;4969;52.304;4.968;2024-02-14T14:18:49;3.90;;;3.70;;
9860;SDS011;4969;52.304;4.968;2024-02-14T14:21:16;3.65;;;3.45;;
9860;SDS011;4969;52.304;4.968;2024-02-14T14:23:42;3.65;;;3.38;;
9860;SDS011;4969;52.304;4.968;2024-02-14T14:26:09;3.45;;;3.20;;
9860;SDS011;4969;52.304;4.968;2024-02-14T14:28:38;2.92;;;2.72;;
9860;SDS011;4969;52.304;4.968;2024-02-14T14:31:05;2.60;;;2.50;;
9860;SDS011;4969;52.304;4.968;2024-02-14T14:33:31;1.80;;;1.70;;
9860;SDS011;4969;52.304;4.968;2024-02-14T14:35:59;1.95;;;1.80;;
9860;SDS011;4969;52.304;4.968;2024-02-14T14:38:26;1.65;;;1.58;;
9860;SDS011;4969;52.304;4.968;2024-02-14T14:40:52;1.30;;;1.30;;
9860;SDS011;4969;52.304;4.968;2024-02-14T14:43:20;1.63;;;1.52;;
9860;SDS011;4969;52.304;4.968;2024-02-14T14:45:47;2.25;;;1.40;;
9860;SDS011;4969;52.304;4.968;2024-02-14T14:48:14;1.40;;;1.40;;
9860;SDS011;4969;52.304;4.968;2024-02-14T14:50:42;1.67;;;1.38;;
9860;SDS011;4969;52.304;4.968;2024-02-14T14:53:10;1.52;;;1.40;;
9860;SDS011;4969;52.304;4.968;2024-02-14T14:55:49;1.33;;;1.10;;
9860;SDS011;4969;52.304;4.968;2024-02-14T14:58:16;1.20;;;1.20;;
9860;SDS011;4969;52.304;4.968;2024-02-14T15:00:43;4.85;;;1.23;;
9860;SDS011;4969;52.304;4.968;2024-02-14T15:03:10;1.13;;;1.13;;
9860;SDS011;4969;52.304;4.968;2024-02-14T15:05:37;1.00;;;1.00;;
9860;SDS011;4969;52.304;4.968;2024-02-14T15:08:04;1.40;;;1.30;;
9860;SDS011;4969;52.304;4.968;2024-02-14T15:10:35;1.20;;;1.15;;
9860;SDS011;4969;52.304;4.968;2024-02-14T15:13:03;1.20;;;1.10;;